sensor_id;sensor_type;location;lat;lon;timestamp;temperature;humidity
38866;DHT22;62686;48.984;8.394;2022-10-16T00:00:58;14.90;99.90
38866;DHT22;62686;48.984;8.394;2022-10-16T00:03:26;15.00;99.90
38866;DHT22;62686;48.984;8.394;2022-10-16T00:05:59;15.10;99.90
38866;DHT22;62686;48.984;8.394;2022-10-16T00:08:27;15.10;99.90
38866;DHT22;62686;48.984;8.394;2022-10-16T00:11:02;15.10;99.90
38866;DHT22;62686;48.984;8.394;2022-10-16T00:13:31;15.10;99.90
38866;DHT22;62686;48.984;8.394;2022-10-16T00:16:00;15.20;99.90
38866;DHT22;62686;48.984;8.394;2022-10-16T00:18:29;15.10;99.90
38866;DHT22;62686;48.984;8.394;2022-10-16T00:21:02;15.10;99.90
38866;DHT22;62686;48.984;8.394;2022-10-16T00:23:31;15.10;99.90
38866;DHT22;62686;48.984;8.394;2022-10-16T00:26:03;15.10;99.90
38866;DHT22;62686;48.984;8.394;2022-10-16T00:28:32;15.10;99.90
38866;DHT22;62686;48.984;8.394;2022-10-16T00:31:03;15.10;99.90
38866;DHT22;62686;48.984;8.394;2022-10-16T00:33:31;15.10;99.90
38866;DHT22;62686;48.984;8.394;2022-10-16T00:36:00;15.10;99.90
38866;DHT22;62686;48.984;8.394;2022-10-16T00:38:28;15.10;99.90
38866;DHT22;62686;48.984;8.394;2022-10-16T00:40:56;15.00;99.90
38866;DHT22;62686;48.984;8.394;2022-10-16T00:43:38;15.00;99.90
38866;DHT22;62686;48.984;8.394;2022-10-16T00:46:13;15.00;99.90
38866;DHT22;62686;48.984;8.394;2022-10-16T00:48:47;15.00;99.90
38866;DHT22;62686;48.984;8.394;2022-10-16T00:51:17;15.00;99.90
38866;DHT22;62686;48.984;8.394;2022-10-16T00:53:46;15.10;99.90
38866;DHT22;62686;48.984;8.394;2022-10-16T00:56:16;15.00;99.90
38866;DHT22;62686;48.984;8.394;2022-10-16T00:58:45;15.10;99.90
38866;DHT22;62686;48.984;8.394;2022-10-16T01:01:14;15.10;99.90
38866;DHT22;62686;48.984;8.394;2022-10-16T01:03:42;15.10;99.90
38866;DHT22;62686;48.984;8.394;2022-10-16T01:06:21;15.10;99.90
38866;DHT22;62686;48.984;8.394;2022-10-16T01:09:16;15.20;99.90
38866;DHT22;62686;48.984;8.394;2022-10-16T01:11:52;15.20;99.90
38866;DHT22;62686;48.984;8.394;2022-10-16T01:14:28;15.20;99.90
38866;DHT22;62686;48.984;8.394;2022-10-16T01:17:03;15.20;99.90
38866;DHT22;62686;48.984;8.394;2022-10-16T01:19:47;15.20;99.90
38866;DHT22;62686;48.984;8.394;2022-10-16T01:22:20;15.10;99.90
38866;DHT22;62686;48.984;8.394;2022-10-16T01:24:53;15.10;99.90
38866;DHT22;62686;48.984;8.394;2022-10-16T01:27:25;15.10;99.90
38866;DHT22;62686;48.984;8.394;2022-10-16T01:29:58;15.00;99.90
38866;DHT22;62686;48.984;8.394;2022-10-16T01:32:36;15.10;99.90
38866;DHT22;62686;48.984;8.394;2022-10-16T01:35:11;15.10;99.90
38866;DHT22;62686;48.984;8.394;2022-10-16T01:37:48;15.10;99.90
38866;DHT22;62686;48.984;8.394;2022-10-16T01:40:18;15.10;99.90
38866;DHT22;62686;48.984;8.394;2022-10-16T01:42:52;15.00;99.90
38866;DHT22;62686;48.984;8.394;2022-10-16T01:45:21;15.00;99.90
38866;DHT22;62686;48.984;8.394;2022-10-16T01:47:50;15.00;99.90
38866;DHT22;62686;48.984;8.394;2022-10-16T01:50:20;15.00;99.90
38866;DHT22;62686;48.984;8.394;2022-10-16T01:52:51;14.90;99.90
38866;DHT22;62686;48.984;8.394;2022-10-16T01:55:24;14.90;99.90
38866;DHT22;62686;48.984;8.394;2022-10-16T01:57:55;14.90;99.90
38866;DHT22;62686;48.984;8.394;2022-10-16T02:00:24;14.90;99.90
38866;DHT22;62686;48.984;8.394;2022-10-16T02:03:29;14.90;99.90
38866;DHT22;62686;48.984;8.394;2022-10-16T02:05:58;14.90;99.90
38866;DHT22;62686;48.984;8.394;2022-10-16T02:08:28;14.80;99.90
38866;DHT22;62686;48.984;8.394;2022-10-16T02:10:58;14.70;99.90
38866;DHT22;62686;48.984;8.394;2022-10-16T02:13:32;14.70;99.90
38866;DHT22;62686;48.984;8.394;2022-10-16T02:16:01;14.70;99.90
38866;DHT22;62686;48.984;8.394;2022-10-16T02:18:29;14.70;99.90
38866;DHT22;62686;48.984;8.394;2022-10-16T02:21:00;14.70;99.90
38866;DHT22;62686;48.984;8.394;2022-10-16T02:23:35;14.70;99.90
38866;DHT22;62686;48.984;8.394;2022-10-16T02:26:08;14.70;99.90
38866;DHT22;62686;48.984;8.394;2022-10-16T02:28:42;14.70;99.90
38866;DHT22;62686;48.984;8.394;2022-10-16T02:31:13;14.60;99.90
38866;DHT22;62686;48.984;8.394;2022-10-16T02:33:46;14.60;99.90
38866;DHT22;62686;48.984;8.394;2022-10-16T02:36:14;14.50;99.90
38866;DHT22;62686;48.984;8.394;2022-10-16T02:38:42;14.50;99.90
38866;DHT22;62686;48.984;8.394;2022-10-16T02:41:11;14.50;99.90
38866;DHT22;62686;48.984;8.394;2022-10-16T02:43:40;14.40;99.90
38866;DHT22;62686;48.984;8.394;2022-10-16T02:46:08;14.40;99.90
38866;DHT22;62686;48.984;8.394;2022-10-16T02:48:36;14.40;99.90
38866;DHT22;62686;48.984;8.394;2022-10-16T02:51:06;14.40;99.90
38866;DHT22;62686;48.984;8.394;2022-10-16T02:53:34;14.40;99.90
38866;DHT22;62686;48.984;8.394;2022-10-16T02:56:02;14.40;99.90
38866;DHT22;62686;48.984;8.394;2022-10-16T02:58:30;14.40;99.90
38866;DHT22;62686;48.984;8.394;2022-10-16T03:01:00;14.40;99.90
38866;DHT22;62686;48.984;8.394;2022-10-16T03:03:28;14.40;99.90
38866;DHT22;62686;48.984;8.394;2022-10-16T03:05:56;14.40;99.90
38866;DHT22;62686;48.984;8.394;2022-10-16T03:08:24;14.40;99.90
38866;DHT22;62686;48.984;8.394;2022-10-16T03:10:52;14.40;99.90
38866;DHT22;62686;48.984;8.394;2022-10-16T03:13:20;14.30;99.90
38866;DHT22;62686;48.984;8.394;2022-10-16T03:15:48;14.30;99.90
38866;DHT22;62686;48.984;8.394;2022-10-16T03:18:18;14.30;99.90
38866;DHT22;62686;48.984;8.394;2022-10-16T03:20:46;14.20;99.90
38866;DHT22;62686;48.984;8.394;2022-10-16T03:23:14;14.20;99.90
38866;DHT22;62686;48.984;8.394;2022-10-16T03:25:43;14.20;99.90
38866;DHT22;62686;48.984;8.394;2022-10-16T03:28:11;14.20;99.90
38866;DHT22;62686;48.984;8.394;2022-10-16T03:30:39;14.20;99.90
38866;DHT22;62686;48.984;8.394;2022-10-16T03:33:30;14.20;99.90
38866;DHT22;62686;48.984;8.394;2022-10-16T03:35:58;14.20;99.90
38866;DHT22;62686;48.984;8.394;2022-10-16T03:38:26;14.20;99.90
38866;DHT22;62686;48.984;8.394;2022-10-16T03:40:55;14.20;99.90
38866;DHT22;62686;48.984;8.394;2022-10-16T03:43:23;14.20;99.90
38866;DHT22;62686;48.984;8.394;2022-10-16T03:45:51;14.20;99.90
38866;DHT22;62686;48.984;8.394;2022-10-16T03:48:19;14.20;99.90
38866;DHT22;62686;48.984;8.394;2022-10-16T03:50:48;14.30;99.90
38866;DHT22;62686;48.984;8.394;2022-10-16T03:53:18;14.20;99.90
38866;DHT22;62686;48.984;8.394;2022-10-16T03:55:46;14.20;99.90
38866;DHT22;62686;48.984;8.394;2022-10-16T03:58:14;14.20;99.90
38866;DHT22;62686;48.984;8.394;2022-10-16T04:00:44;14.20;99.90
38866;DHT22;62686;48.984;8.394;2022-10-16T04:03:12;14.30;99.90
38866;DHT22;62686;48.984;8.394;2022-10-16T04:05:41;14.40;99.90
38866;DHT22;62686;48.984;8.394;2022-10-16T04:08:10;14.40;99.90
38866;DHT22;62686;48.984;8.394;2022-10-16T04:10:38;14.40;99.90
38866;DHT22;62686;48.984;8.394;2022-10-16T04:13:06;14.30;99.90
38866;DHT22;62686;48.984;8.394;2022-10-16T04:15:35;14.30;99.90
38866;DHT22;62686;48.984;8.394;2022-10-16T04:18:03;14.30;99.90
38866;DHT22;62686;48.984;8.394;2022-10-16T04:20:31;14.40;99.90
38866;DHT22;62686;48.984;8.394;2022-10-16T04:22:59;14.30;99.90
38866;DHT22;62686;48.984;8.394;2022-10-16T04:25:29;14.40;99.90
38866;DHT22;62686;48.984;8.394;2022-10-16T04:27:57;14.40;99.90
38866;DHT22;62686;48.984;8.394;2022-10-16T04:30:26;14.50;99.90
38866;DHT22;62686;48.984;8.394;2022-10-16T04:32:54;14.50;99.90
38866;DHT22;62686;48.984;8.394;2022-10-16T04:35:22;14.50;99.90
38866;DHT22;62686;48.984;8.394;2022-10-16T04:37:50;14.50;99.90
38866;DHT22;62686;48.984;8.394;2022-10-16T04:40:18;14.50;99.90
38866;DHT22;62686;48.984;8.394;2022-10-16T04:42:47;14.50;99.90
38866;DHT22;62686;48.984;8.394;2022-10-16T04:45:16;14.50;99.90
38866;DHT22;62686;48.984;8.394;2022-10-16T04:47:44;14.40;99.90
38866;DHT22;62686;48.984;8.394;2022-10-16T04:50:12;14.40;99.90
38866;DHT22;62686;48.984;8.394;2022-10-16T04:52:40;14.50;99.90
38866;DHT22;62686;48.984;8.394;2022-10-16T04:55:08;14.40;99.90
38866;DHT22;62686;48.984;8.394;2022-10-16T04:57:36;14.40;99.90
38866;DHT22;62686;48.984;8.394;2022-10-16T05:00:07;14.40;99.90
38866;DHT22;62686;48.984;8.394;2022-10-16T05:02:36;14.40;99.90
38866;DHT22;62686;48.984;8.394;2022-10-16T05:05:05;14.40;99.90
38866;DHT22;62686;48.984;8.394;2022-10-16T05:07:33;14.40;99.90
38866;DHT22;62686;48.984;8.394;2022-10-16T05:10:01;14.40;99.90
38866;DHT22;62686;48.984;8.394;2022-10-16T05:12:30;14.30;99.90
38866;DHT22;62686;48.984;8.394;2022-10-16T05:14:58;14.30;99.90
38866;DHT22;62686;48.984;8.394;2022-10-16T05:17:27;14.30;99.90
38866;DHT22;62686;48.984;8.394;2022-10-16T05:19:55;14.40;99.90
38866;DHT22;62686;48.984;8.394;2022-10-16T05:22:23;14.30;99.90
38866;DHT22;62686;48.984;8.394;2022-10-16T05:24:51;14.30;99.90
38866;DHT22;62686;48.984;8.394;2022-10-16T05:27:19;14.30;99.90
38866;DHT22;62686;48.984;8.394;2022-10-16T05:29:48;14.30;99.90
38866;DHT22;62686;48.984;8.394;2022-10-16T05:32:18;14.30;99.90
38866;DHT22;62686;48.984;8.394;2022-10-16T05:34:50;14.20;99.90
38866;DHT22;62686;48.984;8.394;2022-10-16T05:37:18;14.20;99.90
38866;DHT22;62686;48.984;8.394;2022-10-16T05:39:47;14.20;99.90
38866;DHT22;62686;48.984;8.394;2022-10-16T05:42:15;14.20;99.90
38866;DHT22;62686;48.984;8.394;2022-10-16T05:44:43;14.20;99.90
38866;DHT22;62686;48.984;8.394;2022-10-16T05:47:12;14.30;99.90
38866;DHT22;62686;48.984;8.394;2022-10-16T05:49:41;14.30;99.90
38866;DHT22;62686;48.984;8.394;2022-10-16T05:52:11;14.30;99.90
38866;DHT22;62686;48.984;8.394;2022-10-16T05:54:39;14.20;99.90
38866;DHT22;62686;48.984;8.394;2022-10-16T05:57:07;14.20;99.90
38866;DHT22;62686;48.984;8.394;2022-10-16T05:59:35;14.20;99.90
38866;DHT22;62686;48.984;8.394;2022-10-16T06:02:03;14.10;99.90
38866;DHT22;62686;48.984;8.394;2022-10-16T06:04:31;14.10;99.90
38866;DHT22;62686;48.984;8.394;2022-10-16T06:06:59;14.10;99.90
38866;DHT22;62686;48.984;8.394;2022-10-16T06:09:29;14.10;99.90
38866;DHT22;62686;48.984;8.394;2022-10-16T06:11:57;14.10;99.90
38866;DHT22;62686;48.984;8.394;2022-10-16T06:14:25;14.10;99.90
38866;DHT22;62686;48.984;8.394;2022-10-16T06:16:54;14.20;99.90
38866;DHT22;62686;48.984;8.394;2022-10-16T06:19:22;14.20;99.90
38866;DHT22;62686;48.984;8.394;2022-10-16T06:21:50;14.20;99.90
38866;DHT22;62686;48.984;8.394;2022-10-16T06:24:18;14.20;99.90
38866;DHT22;62686;48.984;8.394;2022-10-16T06:26:48;14.30;99.90
38866;DHT22;62686;48.984;8.394;2022-10-16T06:29:16;14.30;99.90
38866;DHT22;62686;48.984;8.394;2022-10-16T06:31:44;14.30;99.90
38866;DHT22;62686;48.984;8.394;2022-10-16T06:34:12;14.30;99.90
38866;DHT22;62686;48.984;8.394;2022-10-16T06:36:41;14.40;99.90
38866;DHT22;62686;48.984;8.394;2022-10-16T06:39:10;14.40;99.90
38866;DHT22;62686;48.984;8.394;2022-10-16T06:41:38;14.40;99.90
38866;DHT22;62686;48.984;8.394;2022-10-16T06:44:08;14.50;99.90
38866;DHT22;62686;48.984;8.394;2022-10-16T06:46:36;14.60;99.90
38866;DHT22;62686;48.984;8.394;2022-10-16T06:49:04;14.60;99.90
38866;DHT22;62686;48.984;8.394;2022-10-16T06:51:32;14.60;99.90
38866;DHT22;62686;48.984;8.394;2022-10-16T06:54:03;14.60;99.90
38866;DHT22;62686;48.984;8.394;2022-10-16T06:56:32;14.60;99.90
38866;DHT22;62686;48.984;8.394;2022-10-16T06:59:00;14.70;99.90
38866;DHT22;62686;48.984;8.394;2022-10-16T07:01:30;14.80;99.90
38866;DHT22;62686;48.984;8.394;2022-10-16T07:03:59;14.90;99.80
38866;DHT22;62686;48.984;8.394;2022-10-16T07:06:31;15.00;99.80
38866;DHT22;62686;48.984;8.394;2022-10-16T07:09:02;15.20;99.70
38866;DHT22;62686;48.984;8.394;2022-10-16T07:11:31;15.30;99.40
38866;DHT22;62686;48.984;8.394;2022-10-16T07:13:59;15.50;99.30
38866;DHT22;62686;48.984;8.394;2022-10-16T07:16:30;15.80;99.10
38866;DHT22;62686;48.984;8.394;2022-10-16T07:19:03;16.00;98.70
38866;DHT22;62686;48.984;8.394;2022-10-16T07:21:32;16.00;98.10
38866;DHT22;62686;48.984;8.394;2022-10-16T07:24:04;16.00;97.80
38866;DHT22;62686;48.984;8.394;2022-10-16T07:26:34;16.00;97.70
38866;DHT22;62686;48.984;8.394;2022-10-16T07:29:02;16.10;97.80
38866;DHT22;62686;48.984;8.394;2022-10-16T07:31:32;16.30;97.90
38866;DHT22;62686;48.984;8.394;2022-10-16T07:34:01;16.30;97.90
38866;DHT22;62686;48.984;8.394;2022-10-16T07:36:29;16.30;98.30
38866;DHT22;62686;48.984;8.394;2022-10-16T07:38:57;16.30;97.90
38866;DHT22;62686;48.984;8.394;2022-10-16T07:41:25;16.30;98.00
38866;DHT22;62686;48.984;8.394;2022-10-16T07:43:54;16.40;98.20
38866;DHT22;62686;48.984;8.394;2022-10-16T07:46:23;16.50;98.30
38866;DHT22;62686;48.984;8.394;2022-10-16T07:48:53;16.60;98.40
38866;DHT22;62686;48.984;8.394;2022-10-16T07:51:22;16.70;98.50
38866;DHT22;62686;48.984;8.394;2022-10-16T07:53:51;16.60;98.50
38866;DHT22;62686;48.984;8.394;2022-10-16T07:56:21;16.70;98.60
38866;DHT22;62686;48.984;8.394;2022-10-16T07:58:50;16.80;98.60
38866;DHT22;62686;48.984;8.394;2022-10-16T08:01:18;16.90;98.70
38866;DHT22;62686;48.984;8.394;2022-10-16T08:03:48;16.80;98.70
38866;DHT22;62686;48.984;8.394;2022-10-16T08:06:19;16.80;98.90
38866;DHT22;62686;48.984;8.394;2022-10-16T08:08:49;17.00;99.20
38866;DHT22;62686;48.984;8.394;2022-10-16T08:11:17;17.10;99.30
38866;DHT22;62686;48.984;8.394;2022-10-16T08:13:45;17.30;99.30
38866;DHT22;62686;48.984;8.394;2022-10-16T08:16:13;17.60;99.30
38866;DHT22;62686;48.984;8.394;2022-10-16T08:18:41;17.70;98.80
38866;DHT22;62686;48.984;8.394;2022-10-16T08:21:13;18.00;98.40
38866;DHT22;62686;48.984;8.394;2022-10-16T08:23:44;18.20;98.20
38866;DHT22;62686;48.984;8.394;2022-10-16T08:26:12;18.40;98.50
38866;DHT22;62686;48.984;8.394;2022-10-16T08:28:40;18.30;99.00
38866;DHT22;62686;48.984;8.394;2022-10-16T08:31:10;18.20;99.90
38866;DHT22;62686;48.984;8.394;2022-10-16T08:33:40;18.20;99.90
38866;DHT22;62686;48.984;8.394;2022-10-16T08:36:09;18.30;99.90
38866;DHT22;62686;48.984;8.394;2022-10-16T08:38:38;18.60;96.40
38866;DHT22;62686;48.984;8.394;2022-10-16T08:41:34;18.70;77.70
38866;DHT22;62686;48.984;8.394;2022-10-16T08:47:21;19.10;56.30
38866;DHT22;62686;48.984;8.394;2022-10-16T08:49:56;19.40;59.70
38866;DHT22;62686;48.984;8.394;2022-10-16T08:52:29;19.60;54.40
38866;DHT22;62686;48.984;8.394;2022-10-16T08:54:58;19.80;35.40
38866;DHT22;62686;48.984;8.394;2022-10-16T08:57:29;19.90;35.80
38866;DHT22;62686;48.984;8.394;2022-10-16T09:00:00;20.00;26.30
38866;DHT22;62686;48.984;8.394;2022-10-16T09:02:36;20.40;23.00
38866;DHT22;62686;48.984;8.394;2022-10-16T09:05:19;20.70;1.00
38866;DHT22;62686;48.984;8.394;2022-10-16T09:07:57;21.00;1.00
38866;DHT22;62686;48.984;8.394;2022-10-16T09:10:38;21.50;1.00
38866;DHT22;62686;48.984;8.394;2022-10-16T09:13:18;21.80;1.00
38866;DHT22;62686;48.984;8.394;2022-10-16T09:15:54;21.90;1.00
38866;DHT22;62686;48.984;8.394;2022-10-16T09:18:29;21.60;1.00
38866;DHT22;62686;48.984;8.394;2022-10-16T09:21:06;21.30;1.00
38866;DHT22;62686;48.984;8.394;2022-10-16T09:23:37;21.10;1.00
38866;DHT22;62686;48.984;8.394;2022-10-16T09:26:09;20.60;1.00
38866;DHT22;62686;48.984;8.394;2022-10-16T09:28:40;20.50;1.00
38866;DHT22;62686;48.984;8.394;2022-10-16T09:31:15;20.30;1.00
38866;DHT22;62686;48.984;8.394;2022-10-16T09:33:47;20.10;1.00
38866;DHT22;62686;48.984;8.394;2022-10-16T09:36:16;20.00;1.00
38866;DHT22;62686;48.984;8.394;2022-10-16T09:38:46;20.00;11.50
38866;DHT22;62686;48.984;8.394;2022-10-16T09:41:17;20.10;9.20
38866;DHT22;62686;48.984;8.394;2022-10-16T09:43:52;20.30;5.90
38866;DHT22;62686;48.984;8.394;2022-10-16T09:46:27;20.50;1.00
38866;DHT22;62686;48.984;8.394;2022-10-16T09:48:57;20.70;1.00
38866;DHT22;62686;48.984;8.394;2022-10-16T09:51:28;21.00;1.00
38866;DHT22;62686;48.984;8.394;2022-10-16T09:53:59;21.40;1.00
38866;DHT22;62686;48.984;8.394;2022-10-16T09:56:29;21.70;1.00
38866;DHT22;62686;48.984;8.394;2022-10-16T09:59:03;21.80;1.00
38866;DHT22;62686;48.984;8.394;2022-10-16T10:01:38;22.00;1.00
38866;DHT22;62686;48.984;8.394;2022-10-16T10:04:07;22.10;1.00
38866;DHT22;62686;48.984;8.394;2022-10-16T10:06:36;22.30;1.00
38866;DHT22;62686;48.984;8.394;2022-10-16T10:09:13;22.40;1.00
38866;DHT22;62686;48.984;8.394;2022-10-16T10:11:51;22.40;1.00
38866;DHT22;62686;48.984;8.394;2022-10-16T10:14:34;22.30;1.00
38866;DHT22;62686;48.984;8.394;2022-10-16T10:17:12;22.00;1.00
38866;DHT22;62686;48.984;8.394;2022-10-16T10:19:45;21.70;1.00
38866;DHT22;62686;48.984;8.394;2022-10-16T10:22:21;21.50;1.00
38866;DHT22;62686;48.984;8.394;2022-10-16T10:25:13;21.30;1.00
38866;DHT22;62686;48.984;8.394;2022-10-16T10:27:56;21.20;1.00
38866;DHT22;62686;48.984;8.394;2022-10-16T10:30:34;21.20;1.00
38866;DHT22;62686;48.984;8.394;2022-10-16T10:33:17;21.30;1.00
38866;DHT22;62686;48.984;8.394;2022-10-16T10:35:52;21.50;1.00
38866;DHT22;62686;48.984;8.394;2022-10-16T10:38:31;21.70;1.00
38866;DHT22;62686;48.984;8.394;2022-10-16T10:41:15;21.90;1.00
38866;DHT22;62686;48.984;8.394;2022-10-16T10:43:57;22.10;1.00
38866;DHT22;62686;48.984;8.394;2022-10-16T10:46:34;22.50;1.00
38866;DHT22;62686;48.984;8.394;2022-10-16T10:49:26;22.80;1.00
38866;DHT22;62686;48.984;8.394;2022-10-16T10:52:07;23.10;1.00
38866;DHT22;62686;48.984;8.394;2022-10-16T10:54:47;23.10;1.00
38866;DHT22;62686;48.984;8.394;2022-10-16T10:57:25;23.10;1.00
38866;DHT22;62686;48.984;8.394;2022-10-16T11:00:09;22.90;1.00
38866;DHT22;62686;48.984;8.394;2022-10-16T11:02:48;23.10;1.00
38866;DHT22;62686;48.984;8.394;2022-10-16T11:05:31;23.50;1.00
38866;DHT22;62686;48.984;8.394;2022-10-16T11:08:03;23.70;1.00
38866;DHT22;62686;48.984;8.394;2022-10-16T11:10:39;23.80;1.00
38866;DHT22;62686;48.984;8.394;2022-10-16T11:13:21;24.20;1.00
38866;DHT22;62686;48.984;8.394;2022-10-16T11:15:55;24.80;1.00
38866;DHT22;62686;48.984;8.394;2022-10-16T11:18:32;25.30;99.90
38866;DHT22;62686;48.984;8.394;2022-10-16T11:21:05;25.60;1.00
38866;DHT22;62686;48.984;8.394;2022-10-16T11:23:39;25.90;99.90
38866;DHT22;62686;48.984;8.394;2022-10-16T11:26:13;25.80;1.00
38866;DHT22;62686;48.984;8.394;2022-10-16T11:28:45;25.60;1.00
38866;DHT22;62686;48.984;8.394;2022-10-16T11:31:19;25.30;62.70
38866;DHT22;62686;48.984;8.394;2022-10-16T11:33:57;25.20;99.90
38866;DHT22;62686;48.984;8.394;2022-10-16T11:36:38;25.00;16.00
38866;DHT22;62686;48.984;8.394;2022-10-16T11:39:18;25.20;1.00
38866;DHT22;62686;48.984;8.394;2022-10-16T11:41:49;25.00;99.90
38866;DHT22;62686;48.984;8.394;2022-10-16T11:47:26;25.20;99.90
38866;DHT22;62686;48.984;8.394;2022-10-16T11:50:23;25.40;99.90
38866;DHT22;62686;48.984;8.394;2022-10-16T11:53:01;25.50;19.80
38866;DHT22;62686;48.984;8.394;2022-10-16T11:55:34;25.70;10.00
38866;DHT22;62686;48.984;8.394;2022-10-16T11:58:08;26.10;1.00
38866;DHT22;62686;48.984;8.394;2022-10-16T12:00:45;27.60;99.90
38866;DHT22;62686;48.984;8.394;2022-10-16T12:03:21;28.50;99.90
38866;DHT22;62686;48.984;8.394;2022-10-16T12:06:21;28.10;1.00
38866;DHT22;62686;48.984;8.394;2022-10-16T12:08:53;27.00;99.90
38866;DHT22;62686;48.984;8.394;2022-10-16T12:11:31;26.10;1.00
38866;DHT22;62686;48.984;8.394;2022-10-16T12:14:22;25.80;1.00
38866;DHT22;62686;48.984;8.394;2022-10-16T12:16:53;25.50;1.00
38866;DHT22;62686;48.984;8.394;2022-10-16T12:19:24;25.10;1.00
38866;DHT22;62686;48.984;8.394;2022-10-16T12:21:56;24.80;1.00
38866;DHT22;62686;48.984;8.394;2022-10-16T12:24:34;24.60;99.90
38866;DHT22;62686;48.984;8.394;2022-10-16T12:27:04;24.40;99.90
38866;DHT22;62686;48.984;8.394;2022-10-16T12:29:36;24.60;99.90
38866;DHT22;62686;48.984;8.394;2022-10-16T12:32:27;24.80;99.90
38866;DHT22;62686;48.984;8.394;2022-10-16T12:35:19;24.80;99.90
38866;DHT22;62686;48.984;8.394;2022-10-16T12:37:50;24.60;99.90
38866;DHT22;62686;48.984;8.394;2022-10-16T12:40:29;24.60;99.90
38866;DHT22;62686;48.984;8.394;2022-10-16T12:42:58;24.90;99.90
38866;DHT22;62686;48.984;8.394;2022-10-16T12:45:29;25.10;99.90
38866;DHT22;62686;48.984;8.394;2022-10-16T12:47:59;25.20;99.90
38866;DHT22;62686;48.984;8.394;2022-10-16T12:50:31;25.30;99.90
38866;DHT22;62686;48.984;8.394;2022-10-16T12:53:03;25.30;99.90
38866;DHT22;62686;48.984;8.394;2022-10-16T12:55:49;25.40;99.90
38866;DHT22;62686;48.984;8.394;2022-10-16T12:58:49;25.70;99.90
38866;DHT22;62686;48.984;8.394;2022-10-16T13:01:34;25.40;1.00
38866;DHT22;62686;48.984;8.394;2022-10-16T13:04:18;25.10;99.90
38866;DHT22;62686;48.984;8.394;2022-10-16T13:06:55;24.80;99.90
38866;DHT22;62686;48.984;8.394;2022-10-16T13:09:43;24.40;99.90
38866;DHT22;62686;48.984;8.394;2022-10-16T13:15:25;23.80;1.00
38866;DHT22;62686;48.984;8.394;2022-10-16T13:18:01;23.50;1.00
38866;DHT22;62686;48.984;8.394;2022-10-16T13:20:35;23.30;1.00
38866;DHT22;62686;48.984;8.394;2022-10-16T13:23:13;23.10;1.00
38866;DHT22;62686;48.984;8.394;2022-10-16T13:25:55;23.10;1.00
38866;DHT22;62686;48.984;8.394;2022-10-16T13:28:29;23.10;1.00
38866;DHT22;62686;48.984;8.394;2022-10-16T13:31:01;23.20;1.00
38866;DHT22;62686;48.984;8.394;2022-10-16T13:33:32;23.20;1.00
38866;DHT22;62686;48.984;8.394;2022-10-16T13:36:01;23.30;1.00
38866;DHT22;62686;48.984;8.394;2022-10-16T13:38:30;23.30;1.00
38866;DHT22;62686;48.984;8.394;2022-10-16T13:41:02;23.10;1.00
38866;DHT22;62686;48.984;8.394;2022-10-16T13:43:34;23.10;1.00
38866;DHT22;62686;48.984;8.394;2022-10-16T13:46:04;22.90;1.00
38866;DHT22;62686;48.984;8.394;2022-10-16T13:48:33;22.80;1.00
38866;DHT22;62686;48.984;8.394;2022-10-16T13:51:10;22.60;1.00
38866;DHT22;62686;48.984;8.394;2022-10-16T13:53:39;22.40;1.00
38866;DHT22;62686;48.984;8.394;2022-10-16T13:56:12;22.10;1.00
38866;DHT22;62686;48.984;8.394;2022-10-16T13:58:40;21.90;1.00
38866;DHT22;62686;48.984;8.394;2022-10-16T14:01:16;21.70;1.00
38866;DHT22;62686;48.984;8.394;2022-10-16T14:03:46;21.60;1.00
38866;DHT22;62686;48.984;8.394;2022-10-16T14:06:16;21.40;1.00
38866;DHT22;62686;48.984;8.394;2022-10-16T14:08:50;21.30;1.00
38866;DHT22;62686;48.984;8.394;2022-10-16T14:11:22;21.20;2.30
38866;DHT22;62686;48.984;8.394;2022-10-16T14:13:51;21.10;8.40
38866;DHT22;62686;48.984;8.394;2022-10-16T14:16:23;21.10;15.20
38866;DHT22;62686;48.984;8.394;2022-10-16T14:18:56;21.00;22.70
38866;DHT22;62686;48.984;8.394;2022-10-16T14:21:25;21.10;26.00
38866;DHT22;62686;48.984;8.394;2022-10-16T14:23:54;21.30;24.30
38866;DHT22;62686;48.984;8.394;2022-10-16T14:26:26;21.80;17.50
38866;DHT22;62686;48.984;8.394;2022-10-16T14:29:12;22.40;5.50
38866;DHT22;62686;48.984;8.394;2022-10-16T14:31:41;23.00;1.00
38866;DHT22;62686;48.984;8.394;2022-10-16T14:34:26;23.40;1.00
38866;DHT22;62686;48.984;8.394;2022-10-16T14:36:55;23.70;1.00
38866;DHT22;62686;48.984;8.394;2022-10-16T14:39:25;23.60;1.00
38866;DHT22;62686;48.984;8.394;2022-10-16T14:41:57;23.40;1.00
38866;DHT22;62686;48.984;8.394;2022-10-16T14:44:29;23.30;1.00
38866;DHT22;62686;48.984;8.394;2022-10-16T14:47:07;23.40;1.00
38866;DHT22;62686;48.984;8.394;2022-10-16T14:49:36;23.50;1.00
38866;DHT22;62686;48.984;8.394;2022-10-16T14:52:09;23.60;1.00
38866;DHT22;62686;48.984;8.394;2022-10-16T14:54:38;23.50;1.00
38866;DHT22;62686;48.984;8.394;2022-10-16T14:57:17;23.40;1.00
38866;DHT22;62686;48.984;8.394;2022-10-16T14:59:45;23.10;1.00
38866;DHT22;62686;48.984;8.394;2022-10-16T15:02:20;22.80;1.00
38866;DHT22;62686;48.984;8.394;2022-10-16T15:04:50;22.60;1.00
38866;DHT22;62686;48.984;8.394;2022-10-16T15:07:18;22.40;1.00
38866;DHT22;62686;48.984;8.394;2022-10-16T15:09:47;22.10;1.00
38866;DHT22;62686;48.984;8.394;2022-10-16T15:12:17;21.90;1.00
38866;DHT22;62686;48.984;8.394;2022-10-16T15:14:46;21.80;1.00
38866;DHT22;62686;48.984;8.394;2022-10-16T15:17:14;21.60;1.00
38866;DHT22;62686;48.984;8.394;2022-10-16T15:19:43;21.50;1.00
38866;DHT22;62686;48.984;8.394;2022-10-16T15:22:11;21.40;1.00
38866;DHT22;62686;48.984;8.394;2022-10-16T15:24:39;21.40;1.00
38866;DHT22;62686;48.984;8.394;2022-10-16T15:27:07;21.40;1.00
38866;DHT22;62686;48.984;8.394;2022-10-16T15:29:37;21.50;1.00
38866;DHT22;62686;48.984;8.394;2022-10-16T15:32:05;21.50;1.00
38866;DHT22;62686;48.984;8.394;2022-10-16T15:34:33;21.50;1.00
38866;DHT22;62686;48.984;8.394;2022-10-16T15:37:02;21.40;1.00
38866;DHT22;62686;48.984;8.394;2022-10-16T15:39:31;21.30;1.00
38866;DHT22;62686;48.984;8.394;2022-10-16T15:42:00;21.10;8.50
38866;DHT22;62686;48.984;8.394;2022-10-16T15:44:28;20.90;10.10
38866;DHT22;62686;48.984;8.394;2022-10-16T15:46:58;20.70;16.90
38866;DHT22;62686;48.984;8.394;2022-10-16T15:49:28;20.50;24.80
38866;DHT22;62686;48.984;8.394;2022-10-16T15:51:56;20.40;32.90
38866;DHT22;62686;48.984;8.394;2022-10-16T15:54:24;20.20;37.80
38866;DHT22;62686;48.984;8.394;2022-10-16T15:56:52;20.10;43.00
38866;DHT22;62686;48.984;8.394;2022-10-16T15:59:20;20.00;48.40
38866;DHT22;62686;48.984;8.394;2022-10-16T16:01:48;19.90;50.50
38866;DHT22;62686;48.984;8.394;2022-10-16T16:04:18;19.80;54.30
38866;DHT22;62686;48.984;8.394;2022-10-16T16:07:06;19.60;55.70
38866;DHT22;62686;48.984;8.394;2022-10-16T16:09:35;19.40;59.20
38866;DHT22;62686;48.984;8.394;2022-10-16T16:12:03;19.20;63.10
38866;DHT22;62686;48.984;8.394;2022-10-16T16:14:32;19.00;68.60